Time;durP1;ratioP1;P1;durP2;ratioP2;P2;SDS_P1;SDS_P2;PMS_P1;PMS_P2;Temp;Humidity;BMP_temperature;BMP_pressure;BME280_temperature;BME280_humidity;BME280_pressure;Samples;Min_cycle;Max_cycle;Signal;HPM_P1;HPM_P2
2023/05/25 00:01:35;;;;;;;9.53;6.83;;;11.80;1.00;;;;;;5072134;28;21071;-57
2023/05/25 00:04:02;;;;;;;10.23;7.67;;;11.70;1.00;;;;;;5070258;28;20188;-57
2023/05/25 00:06:31;;;;;;;10.27;6.63;;;11.60;1.00;;;;;;5071306;28;20438;-57
2023/05/25 00:08:57;;;;;;;10.70;6.37;;;11.60;1.00;;;;;;5070285;28;20445;-57
2023/05/25 00:11:25;;;;;;;6.97;5.63;;;11.70;1.00;;;;;;5067504;28;20445;-56
2023/05/25 00:13:52;;;;;;;11.90;6.70;;;11.70;1.00;;;;;;5068493;28;20448;-59
2023/05/25 00:16:17;;;;;;;13.80;7.90;;;11.70;1.00;;;;;;5067477;28;20568;-56
2023/05/25 00:18:43;;;;;;;9.27;7.40;;;11.70;1.00;;;;;;5068782;28;20488;-56
2023/05/25 00:21:09;;;;;;;13.23;6.60;;;11.70;1.00;;;;;;5071571;28;20215;-56
2023/05/25 00:23:35;;;;;;;12.13;6.73;;;11.60;1.00;;;;;;5069495;28;20184;-58
2023/05/25 00:26:02;;;;;;;12.13;7.00;;;11.50;1.00;;;;;;5071369;28;20563;-57
2023/05/25 00:28:28;;;;;;;8.30;6.03;;;11.50;1.00;;;;;;5063928;28;20223;-56
2023/05/25 00:30:54;;;;;;;11.30;6.43;;;11.50;1.00;;;;;;5066690;28;20453;-57
2023/05/25 00:33:20;;;;;;;10.10;6.70;;;11.40;1.00;;;;;;5067998;28;20271;-56
2023/05/25 00:35:46;;;;;;;10.50;7.40;;;11.40;1.00;;;;;;5069990;28;20514;-57
2023/05/25 00:38:21;;;;;;;12.40;7.60;;;11.50;1.00;;;;;;5069437;28;20963;-56
2023/05/25 00:40:47;;;;;;;8.23;6.47;;;11.40;1.00;;;;;;5072004;28;20468;-56
2023/05/25 00:43:12;;;;;;;12.03;7.50;;;11.40;1.00;;;;;;5081238;28;20970;-56
2023/05/25 00:45:38;;;;;;;12.97;7.40;;;11.40;1.00;;;;;;5078313;28;20196;-57
2023/05/25 00:48:05;;;;;;;12.57;7.43;;;11.30;1.00;;;;;;5067384;28;20188;-57
2023/05/25 00:50:37;;;;;;;12.63;6.97;;;11.30;1.00;;;;;;5071259;28;20438;-56
2023/05/25 00:53:05;;;;;;;11.37;6.47;;;11.30;1.00;;;;;;5069303;28;20442;-57
2023/05/25 00:55:36;;;;;;;12.70;7.40;;;11.20;1.00;;;;;;5070575;28;20442;-56
2023/05/25 00:58:04;;;;;;;9.77;7.07;;;11.20;1.00;;;;;;5068706;28;20514;-56
2023/05/25 01:00:32;;;;;;;10.70;6.93;;;11.20;1.00;;;;;;5068678;28;20518;-57
2023/05/25 01:02:58;;;;;;;10.13;6.53;;;11.10;1.00;;;;;;5067794;28;20474;-57
2023/05/25 01:05:28;;;;;;;14.73;7.37;;;11.10;1.00;;;;;;5071328;28;20995;-56
2023/05/25 01:07:58;;;;;;;10.70;6.67;;;11.20;1.00;;;;;;5070557;28;20448;-56
2023/05/25 01:10:25;;;;;;;10.93;7.53;;;11.20;1.00;;;;;;5069680;28;20787;-57
2023/05/25 01:12:54;;;;;;;11.83;7.30;;;11.10;1.00;;;;;;5067200;28;20499;-57
2023/05/25 01:15:20;;;;;;;11.90;8.50;;;11.10;1.00;;;;;;5070064;28;20492;-57
2023/05/25 01:17:47;;;;;;;13.70;7.53;;;11.10;1.00;;;;;;5066283;28;20791;-57
2023/05/25 01:20:12;;;;;;;9.77;6.87;;;11.00;1.00;;;;;;5064380;28;20458;-56
2023/05/25 01:22:54;;;;;;;13.07;6.90;;;11.00;1.00;;;;;;5066272;28;20468;-56
2023/05/25 01:25:32;;;;;;;11.73;6.13;;;11.00;1.00;;;;;;5069542;28;20680;-56
2023/05/25 01:28:16;;;;;;;13.10;7.40;;;11.10;1.00;;;;;;5067750;28;20458;-57
2023/05/25 01:30:44;;;;;;;11.10;7.60;;;11.10;1.00;;;;;;5069566;28;20533;-57
2023/05/25 01:33:11;;;;;;;9.10;7.10;;;11.00;1.00;;;;;;5063196;28;20450;-57
2023/05/25 01:35:39;;;;;;;14.33;7.13;;;11.00;1.00;;;;;;5065934;28;20529;-57
2023/05/25 01:38:04;;;;;;;13.87;7.83;;;11.00;1.00;;;;;;5068471;28;20450;-57
2023/05/25 01:40:30;;;;;;;9.57;6.73;;;11.00;1.00;;;;;;5069203;28;20593;-57
2023/05/25 01:42:55;;;;;;;11.37;7.50;;;10.90;1.00;;;;;;5066168;28;20200;-57
2023/05/25 01:45:21;;;;;;;10.90;6.73;;;11.00;1.00;;;;;;5067344;28;20217;-57
2023/05/25 01:48:10;;;;;;;9.77;7.43;;;10.90;1.00;;;;;;5074143;28;20195;-56
2023/05/25 01:50:56;;;;;;;13.00;7.43;;;10.90;1.00;;;;;;5068945;28;20457;-57
2023/05/25 01:53:35;;;;;;;13.10;7.63;;;10.80;1.00;;;;;;5066849;28;20593;-57
2023/05/25 01:56:10;;;;;;;7.20;6.50;;;10.70;1.00;;;;;;5069487;28;20446;-57
2023/05/25 01:58:39;;;;;;;12.70;6.73;;;10.80;1.00;;;;;;5068711;28;20625;-57
2023/05/25 02:01:07;;;;;;;10.30;6.93;;;10.80;1.00;;;;;;5068771;28;20458;-57
2023/05/25 02:03:33;;;;;;;8.33;6.80;;;10.80;1.00;;;;;;5067308;28;20453;-57
2023/05/25 02:05:58;;;;;;;10.40;7.53;;;10.70;1.00;;;;;;5067451;28;20446;-57
2023/05/25 02:08:24;;;;;;;11.90;7.40;;;10.70;1.00;;;;;;5065002;28;20207;-58
2023/05/25 02:10:50;;;;;;;9.00;6.83;;;10.80;1.00;;;;;;5069705;28;20271;-57
2023/05/25 02:13:15;;;;;;;11.70;6.87;;;10.70;1.00;;;;;;5066400;28;20195;-56
2023/05/25 02:15:41;;;;;;;11.37;7.60;;;10.70;1.00;;;;;;5068983;28;20199;-55
2023/05/25 02:18:07;;;;;;;13.77;7.27;;;10.70;1.00;;;;;;5069544;28;20241;-56
2023/05/25 02:20:33;;;;;;;9.50;6.90;;;10.60;1.00;;;;;;5068136;28;20192;-56
2023/05/25 02:22:58;;;;;;;9.63;8.33;;;10.60;1.00;;;;;;5069285;28;20454;-55
2023/05/25 02:25:24;;;;;;;10.03;6.57;;;10.60;1.00;;;;;;5068085;28;20196;-56
2023/05/25 02:27:49;;;;;;;10.60;7.33;;;10.60;1.00;;;;;;5068762;28;20203;-58
2023/05/25 02:30:15;;;;;;;13.70;6.63;;;10.60;1.00;;;;;;5066683;28;20252;-57
2023/05/25 02:32:41;;;;;;;13.53;7.20;;;10.60;1.00;;;;;;5076265;28;20223;-57
2023/05/25 02:35:07;;;;;;;12.03;7.70;;;10.50;1.00;;;;;;5067792;28;20194;-56
2023/05/25 02:37:32;;;;;;;10.00;6.53;;;10.50;1.00;;;;;;5067555;28;20204;-57
2023/05/25 02:39:58;;;;;;;8.83;6.80;;;10.50;1.00;;;;;;5073185;28;20456;-56
2023/05/25 02:42:24;;;;;;;8.67;6.60;;;10.40;1.00;;;;;;5066847;28;20220;-56
2023/05/25 02:44:50;;;;;;;9.83;7.70;;;10.40;1.00;;;;;;5066609;28;20183;-56
2023/05/25 02:47:17;;;;;;;10.90;7.63;;;10.40;1.00;;;;;;5067480;28;20175;-57
2023/05/25 02:49:44;;;;;;;8.20;6.63;;;10.40;1.00;;;;;;5066924;28;20442;-56
2023/05/25 02:52:10;;;;;;;13.40;7.53;;;10.40;1.00;;;;;;5068197;28;20442;-56
2023/05/25 02:54:35;;;;;;;13.93;6.93;;;10.40;1.00;;;;;;5068557;28;20449;-57
2023/05/25 02:57:05;;;;;;;11.13;6.70;;;10.40;1.00;;;;;;5067656;28;20760;-56
2023/05/25 02:59:31;;;;;;;9.60;6.77;;;10.40;1.00;;;;;;5067764;28;20274;-56
2023/05/25 03:01:58;;;;;;;9.43;5.87;;;10.40;1.00;;;;;;5068894;28;20999;-56
2023/05/25 03:04:24;;;;;;;9.00;7.47;;;10.40;1.00;;;;;;5068337;28;21168;-56
2023/05/25 03:06:50;;;;;;;9.63;6.67;;;10.40;1.00;;;;;;5069258;28;20449;-57
2023/05/25 03:09:16;;;;;;;9.03;6.70;;;10.40;1.00;;;;;;5069292;28;20520;-56
2023/05/25 03:11:42;;;;;;;9.67;6.23;;;10.30;1.00;;;;;;5069351;28;20283;-56
2023/05/25 03:14:09;;;;;;;14.30;7.13;;;10.20;1.00;;;;;;5068767;28;21040;-57
2023/05/25 03:16:35;;;;;;;9.53;6.80;;;10.20;1.00;;;;;;5068486;28;20618;-56
2023/05/25 03:19:04;;;;;;;10.00;7.00;;;10.20;1.00;;;;;;5068328;28;20430;-56
2023/05/25 03:21:31;;;;;;;9.57;7.67;;;10.20;1.00;;;;;;5068299;28;20227;-56
2023/05/25 03:23:56;;;;;;;9.03;6.90;;;10.20;1.00;;;;;;5068793;28;20429;-56
2023/05/25 03:26:24;;;;;;;8.40;7.10;;;10.20;1.00;;;;;;5068628;28;20541;-56
2023/05/25 03:28:51;;;;;;;9.67;6.60;;;10.20;1.00;;;;;;5064855;28;20665;-57
2023/05/25 03:31:17;;;;;;;10.40;7.50;;;10.30;1.00;;;;;;5066108;28;20490;-57
2023/05/25 03:33:43;;;;;;;8.20;6.67;;;10.40;1.00;;;;;;5062228;28;20486;-57
2023/05/25 03:36:11;;;;;;;10.93;6.57;;;10.40;1.00;;;;;;5063559;28;20982;-57
2023/05/25 03:38:37;;;;;;;12.73;6.63;;;10.50;1.00;;;;;;5066582;28;20184;-57
2023/05/25 03:41:03;;;;;;;11.57;6.53;;;10.50;1.00;;;;;;5060785;28;20477;-57
2023/05/25 03:43:29;;;;;;;8.40;6.70;;;10.50;1.00;;;;;;5065405;28;20442;-57
2023/05/25 03:45:55;;;;;;;12.37;6.50;;;10.50;1.00;;;;;;5067989;28;20442;-57
2023/05/25 03:48:21;;;;;;;10.00;7.50;;;10.40;1.00;;;;;;5062556;28;20442;-57
2023/05/25 03:50:46;;;;;;;9.93;7.17;;;10.40;1.00;;;;;;5064113;28;20449;-57
2023/05/25 03:53:12;;;;;;;8.27;6.73;;;10.50;1.00;;;;;;5064933;28;20191;-56
2023/05/25 03:55:38;;;;;;;11.20;7.23;;;10.50;1.00;;;;;;5065290;28;20196;-56
2023/05/25 03:58:03;;;;;;;8.47;6.23;;;10.50;1.00;;;;;;5060620;28;20228;-56
2023/05/25 04:00:29;;;;;;;13.63;7.13;;;10.50;1.00;;;;;;5063401;28;20184;-56
2023/05/25 04:02:55;;;;;;;11.43;6.87;;;10.60;1.00;;;;;;5061939;28;20183;-56
2023/05/25 04:05:21;;;;;;;10.07;7.50;;;10.60;1.00;;;;;;5059869;28;20416;-56
2023/05/25 04:07:46;;;;;;;10.23;7.63;;;10.70;1.00;;;;;;5063633;28;21031;-57
2023/05/25 04:10:12;;;;;;;11.23;6.67;;;10.70;1.00;;;;;;5056545;28;20199;-59
2023/05/25 04:12:38;;;;;;;9.80;7.00;;;10.70;1.00;;;;;;5062858;28;20538;-56
2023/05/25 04:15:07;;;;;;;9.20;7.40;;;10.70;1.00;;;;;;5061564;28;20658;-56
2023/05/25 04:17:34;;;;;;;11.80;7.77;;;10.80;1.00;;;;;;5064160;28;20196;-56
2023/05/25 04:20:00;;;;;;;8.53;7.07;;;10.80;1.00;;;;;;5067140;28;20453;-56
2023/05/25 04:22:26;;;;;;;10.00;8.03;;;10.90;1.00;;;;;;5066276;28;20469;-57
2023/05/25 04:24:51;;;;;;;11.30;7.20;;;10.90;1.00;;;;;;5065633;28;20453;-56
2023/05/25 04:27:19;;;;;;;10.10;7.10;;;11.00;1.00;;;;;;5062795;28;20279;-56
2023/05/25 04:29:45;;;;;;;9.60;7.60;;;11.00;1.00;;;;;;5068060;28;20227;-58
2023/05/25 04:32:13;;;;;;;9.80;8.20;;;11.00;1.00;;;;;;5064193;28;20490;-59
2023/05/25 04:34:41;;;;;;;17.20;8.60;;;11.10;1.00;;;;;;5066819;28;20437;-58
2023/05/25 04:37:07;;;;;;;10.30;7.03;;;11.10;1.00;;;;;;5071668;28;20889;-58
2023/05/25 04:39:33;;;;;;;10.60;7.33;;;11.30;1.00;;;;;;5071079;28;20481;-59
2023/05/25 04:42:03;;;;;;;10.07;7.60;;;11.40;1.00;;;;;;5069034;28;20465;-57
2023/05/25 04:44:30;;;;;;;10.47;7.30;;;11.40;1.00;;;;;;5071983;28;22175;-56
2023/05/25 04:46:55;;;;;;;10.07;7.90;;;11.50;1.00;;;;;;5069270;28;20560;-57
2023/05/25 04:49:21;;;;;;;12.00;8.47;;;11.50;1.00;;;;;;5071838;28;20524;-58
2023/05/25 04:51:47;;;;;;;8.67;6.90;;;11.60;1.00;;;;;;5071671;28;20180;-57
2023/05/25 04:54:12;;;;;;;9.10;7.93;;;11.70;1.00;;;;;;5069041;28;20196;-55
2023/05/25 04:56:38;;;;;;;9.30;7.03;;;11.70;1.00;;;;;;5071790;28;20195;-56
2023/05/25 04:59:03;;;;;;;13.17;7.50;;;11.70;1.00;;;;;;5071092;28;20638;-56
2023/05/25 05:01:29;;;;;;;12.50;8.30;;;11.70;1.00;;;;;;5071343;28;20199;-57
2023/05/25 05:03:58;;;;;;;12.47;7.67;;;11.80;1.00;;;;;;5070497;28;20191;-57
2023/05/25 05:06:24;;;;;;;14.17;6.80;;;12.00;1.00;;;;;;5075985;28;20429;-58
2023/05/25 05:08:50;;;;;;;11.23;7.80;;;12.10;1.00;;;;;;5062900;28;20511;-57
2023/05/25 05:11:16;;;;;;;11.03;7.43;;;12.20;1.00;;;;;;5065228;28;20955;-56
2023/05/25 05:13:41;;;;;;;12.50;8.00;;;12.40;1.00;;;;;;5071570;28;20434;-56
2023/05/25 05:16:07;;;;;;;9.73;7.23;;;12.40;1.00;;;;;;5067804;28;20242;-56
2023/05/25 05:18:32;;;;;;;9.60;7.63;;;12.40;1.00;;;;;;5069540;28;20184;-57
2023/05/25 05:20:58;;;;;;;9.33;7.23;;;12.40;1.00;;;;;;5086191;28;20613;-55
2023/05/25 05:23:24;;;;;;;8.70;7.70;;;12.50;1.00;;;;;;5068110;28;20279;-57
2023/05/25 05:25:50;;;;;;;11.63;7.60;;;12.50;1.00;;;;;;5069485;28;20184;-57
2023/05/25 05:28:15;;;;;;;11.60;6.90;;;12.50;1.00;;;;;;5069341;28;20280;-58
2023/05/25 05:30:42;;;;;;;12.00;7.57;;;12.40;1.00;;;;;;5067482;28;20206;-58
2023/05/25 05:33:08;;;;;;;10.33;7.97;;;12.50;1.00;;;;;;5068316;28;20551;-56
2023/05/25 05:35:34;;;;;;;9.83;7.67;;;12.50;1.00;;;;;;5068233;28;20446;-58
2023/05/25 05:38:02;;;;;;;13.40;7.70;;;12.60;1.00;;;;;;5071014;28;20184;-57
2023/05/25 05:40:29;;;;;;;9.33;7.70;;;12.80;1.00;;;;;;5066989;28;20192;-58
2023/05/25 05:42:54;;;;;;;13.60;7.57;;;12.90;1.00;;;;;;5067065;28;20452;-57
2023/05/25 05:45:20;;;;;;;11.27;9.40;;;13.10;1.00;;;;;;5067282;28;21018;-55
2023/05/25 05:47:46;;;;;;;15.93;11.23;;;13.40;1.00;;;;;;5065727;28;20216;-57
2023/05/25 05:50:11;;;;;;;12.50;8.13;;;13.50;1.00;;;;;;5052382;28;20196;-57
2023/05/25 05:52:37;;;;;;;11.80;7.57;;;13.60;1.00;;;;;;5065917;28;20279;-57
2023/05/25 05:55:03;;;;;;;11.50;6.67;;;13.60;1.00;;;;;;5066889;28;20208;-57
2023/05/25 05:57:28;;;;;;;10.77;8.00;;;13.70;1.00;;;;;;5063853;28;20230;-57
2023/05/25 05:59:54;;;;;;;7.70;7.00;;;13.80;1.00;;;;;;5064399;28;20257;-57
2023/05/25 06:02:19;;;;;;;10.03;7.23;;;13.80;1.00;;;;;;5063857;28;20200;-57
2023/05/25 06:04:45;;;;;;;13.20;7.20;;;14.00;1.00;;;;;;5072217;28;20261;-57
2023/05/25 06:07:11;;;;;;;9.40;7.37;;;14.10;1.00;;;;;;5065952;28;20187;-58
2023/05/25 06:09:36;;;;;;;10.27;7.70;;;14.30;1.00;;;;;;5065607;28;20272;-58
2023/05/25 06:12:02;;;;;;;9.77;7.90;;;14.40;1.00;;;;;;5060797;28;20613;-57
2023/05/25 06:14:28;;;;;;;13.87;8.13;;;14.60;1.00;;;;;;5063250;28;20206;-57
2023/05/25 06:16:53;;;;;;;14.10;7.70;;;14.70;1.00;;;;;;5063681;28;20241;-58
2023/05/25 06:19:19;;;;;;;10.60;7.30;;;14.70;1.00;;;;;;5063588;28;20191;-58
2023/05/25 06:21:45;;;;;;;17.63;8.23;;;14.80;1.00;;;;;;5061842;28;20208;-57
2023/05/25 06:24:10;;;;;;;8.30;7.00;;;14.90;1.00;;;;;;5064822;28;20640;-57
2023/05/25 06:26:36;;;;;;;10.33;8.10;;;15.00;1.00;;;;;;5061353;28;22024;-57
2023/05/25 06:29:01;;;;;;;10.90;7.83;;;15.20;1.00;;;;;;5062437;28;20187;-58
2023/05/25 06:31:27;;;;;;;9.57;7.70;;;15.40;1.00;;;;;;5057422;28;20184;-58
2023/05/25 06:33:52;;;;;;;10.03;7.67;;;15.40;1.00;;;;;;5064475;28;20668;-58
2023/05/25 06:36:18;;;;;;;11.83;7.87;;;15.40;1.00;;;;;;5065062;28;20179;-57
2023/05/25 06:38:45;;;;;;;9.83;7.10;;;15.60;1.00;;;;;;5062592;28;20229;-57
2023/05/25 06:41:13;;;;;;;8.20;6.87;;;15.70;1.00;;;;;;5064143;28;20211;-58
2023/05/25 06:43:39;;;;;;;10.83;7.30;;;15.90;99.90;;;;;;5067647;28;20470;-57
2023/05/25 06:46:05;;;;;;;9.27;6.43;;;15.90;99.90;;;;;;5064663;28;21040;-58
2023/05/25 06:48:31;;;;;;;8.70;6.43;;;16.00;99.90;;;;;;5067185;28;20441;-59
2023/05/25 06:50:57;;;;;;;12.00;6.53;;;15.80;99.90;;;;;;5051180;28;20736;-57
2023/05/25 06:53:22;;;;;;;10.40;6.47;;;15.80;99.90;;;;;;5069435;28;20445;-58
2023/05/25 06:55:48;;;;;;;9.37;6.63;;;16.00;99.90;;;;;;5069239;28;20194;-57
2023/05/25 06:58:13;;;;;;;10.93;6.43;;;16.10;99.90;;;;;;5068138;28;20248;-57
2023/05/25 07:00:40;;;;;;;11.20;7.60;;;16.20;99.90;;;;;;5069233;28;20646;-58
2023/05/25 07:03:05;;;;;;;10.40;6.67;;;16.30;99.90;;;;;;5068566;28;20191;-58
2023/05/25 07:05:31;;;;;;;10.27;6.90;;;16.20;99.90;;;;;;5089670;28;20514;-58
2023/05/25 07:07:56;;;;;;;10.13;5.73;;;16.10;99.90;;;;;;5071662;28;20176;-58
2023/05/25 07:10:22;;;;;;;9.20;6.23;;;16.20;99.90;;;;;;5066069;28;20274;-57
2023/05/25 07:12:48;;;;;;;10.37;6.90;;;16.30;99.90;;;;;;5069564;28;20302;-58
2023/05/25 07:15:15;;;;;;;9.00;6.37;;;16.50;99.90;;;;;;5066065;28;20438;-58
2023/05/25 07:17:40;;;;;;;7.63;5.90;;;16.90;99.90;;;;;;5069316;28;20236;-57
2023/05/25 07:20:07;;;;;;;6.93;6.23;;;17.10;99.90;;;;;;5069549;28;20914;-59
2023/05/25 07:22:33;;;;;;;9.00;5.80;;;17.20;99.90;;;;;;5069226;28;20203;-57
2023/05/25 07:24:58;;;;;;;13.23;5.67;;;17.30;99.90;;;;;;5068649;28;20591;-57
2023/05/25 07:27:24;;;;;;;9.93;5.97;;;17.20;99.90;;;;;;5066049;28;20203;-57
2023/05/25 07:29:50;;;;;;;10.80;5.60;;;17.40;99.90;;;;;;5069363;28;20704;-58
2023/05/25 07:32:16;;;;;;;7.20;5.30;;;17.50;99.90;;;;;;5069240;28;20175;-58
2023/05/25 07:34:41;;;;;;;10.30;5.70;;;17.50;99.90;;;;;;5067851;28;20194;-57
2023/05/25 07:37:07;;;;;;;8.23;5.70;;;17.50;99.90;;;;;;5069052;28;20487;-58
2023/05/25 07:39:32;;;;;;;5.93;5.33;;;17.40;99.90;;;;;;5069214;28;20187;-58
2023/05/25 07:41:58;;;;;;;12.13;6.03;;;17.60;99.90;;;;;;5068501;28;20204;-57
2023/05/25 07:44:24;;;;;;;7.07;5.20;;;17.80;99.90;;;;;;5069036;28;20278;-58
2023/05/25 07:46:49;;;;;;;10.63;5.90;;;18.10;99.90;;;;;;5069048;28;20774;-57
2023/05/25 07:49:15;;;;;;;11.50;6.20;;;18.20;99.90;;;;;;5068485;28;20270;-58
2023/05/25 07:51:44;;;;;;;8.10;5.50;;;18.20;99.90;;;;;;5069041;28;20176;-59
2023/05/25 07:54:10;;;;;;;10.70;6.93;;;17.90;99.90;;;;;;5068567;28;20184;-57
2023/05/25 07:56:36;;;;;;;11.27;6.20;;;17.80;99.90;;;;;;5068027;28;20477;-57
2023/05/25 07:59:02;;;;;;;7.13;5.47;;;18.10;99.90;;;;;;5069427;28;20529;-58
2023/05/25 08:01:28;;;;;;;9.50;5.30;;;18.10;99.90;;;;;;5069025;28;20540;-58
2023/05/25 08:03:54;;;;;;;11.90;5.00;;;18.40;99.90;;;;;;5068814;28;20527;-59
2023/05/25 08:06:19;;;;;;;8.80;5.37;;;18.40;99.90;;;;;;5070937;28;20690;-57
2023/05/25 08:08:45;;;;;;;7.30;4.90;;;18.60;99.90;;;;;;5072799;28;20430;-58
2023/05/25 08:11:11;;;;;;;12.87;5.63;;;18.50;99.90;;;;;;5069902;28;20195;-57
2023/05/25 08:13:37;;;;;;;10.90;6.77;;;18.60;99.90;;;;;;5068734;28;20555;-58
2023/05/25 08:16:03;;;;;;;10.73;6.13;;;18.90;99.90;;;;;;5072568;28;20838;-57
2023/05/25 08:18:30;;;;;;;7.47;5.43;;;18.60;99.90;;;;;;5072743;28;20450;-57
2023/05/25 08:20:56;;;;;;;11.77;6.80;;;18.50;99.90;;;;;;5072543;28;20499;-58
2023/05/25 08:23:22;;;;;;;6.23;4.73;;;18.40;99.90;;;;;;5072248;28;20469;-58
2023/05/25 08:25:47;;;;;;;7.90;5.67;;;18.40;99.90;;;;;;5070060;28;20477;-58
2023/05/25 08:28:13;;;;;;;6.33;5.03;;;19.00;99.90;;;;;;5072123;28;20191;-58
2023/05/25 08:30:38;;;;;;;7.40;5.53;;;19.00;99.90;;;;;;5072222;28;20259;-58
2023/05/25 08:33:05;;;;;;;11.47;6.10;;;19.20;99.90;;;;;;5072453;28;20216;-57
2023/05/25 08:35:31;;;;;;;7.23;5.33;;;19.40;99.90;;;;;;5072209;28;20218;-58
2023/05/25 08:37:56;;;;;;;6.67;4.87;;;19.30;99.90;;;;;;5072505;28;20541;-58
2023/05/25 08:40:26;;;;;;;9.13;5.60;;;19.10;99.90;;;;;;5080544;28;20209;-58
2023/05/25 08:42:52;;;;;;;9.60;5.20;;;19.10;99.90;;;;;;5070925;28;20218;-57
2023/05/25 08:45:18;;;;;;;7.67;5.20;;;19.40;99.90;;;;;;5072455;28;20433;-57
2023/05/25 08:47:44;;;;;;;6.87;5.23;;;19.30;99.90;;;;;;5083303;28;20182;-58
2023/05/25 08:50:11;;;;;;;8.07;5.13;;;19.30;99.90;;;;;;5092074;28;20278;-58
2023/05/25 08:52:38;;;;;;;9.20;5.50;;;19.70;99.90;;;;;;5092186;28;20445;-57
2023/05/25 08:55:07;;;;;;;9.27;5.00;;;20.10;99.90;;;;;;5091888;28;20937;-58
2023/05/25 08:57:49;;;;;;;8.93;5.97;;;20.50;99.90;;;;;;5073722;28;20489;-58
2023/05/25 09:00:18;;;;;;;11.30;6.07;;;20.60;99.90;;;;;;5071612;28;20446;-58
2023/05/25 09:02:53;;;;;;;14.17;5.90;;;20.50;99.90;;;;;;5071666;28;20476;-57
2023/05/25 09:05:19;;;;;;;9.03;4.90;;;20.10;99.90;;;;;;5071537;28;20775;-58
2023/05/25 09:07:46;;;;;;;9.37;5.60;;;19.90;99.90;;;;;;5072166;28;20460;-57
2023/05/25 09:10:13;;;;;;;7.30;5.10;;;19.70;99.90;;;;;;5071732;28;20820;-59
2023/05/25 09:12:41;;;;;;;10.00;6.17;;;19.50;99.90;;;;;;5070843;28;20481;-56
2023/05/25 09:15:09;;;;;;;8.83;5.20;;;19.70;99.90;;;;;;5071726;28;20470;-59
2023/05/25 09:17:35;;;;;;;12.40;5.90;;;19.80;99.90;;;;;;5071547;28;20413;-58
2023/05/25 09:20:01;;;;;;;6.77;5.13;;;20.10;99.90;;;;;;5071523;28;20448;-58
2023/05/25 09:22:27;;;;;;;10.03;5.50;;;20.30;99.90;;;;;;5072877;28;20239;-58
2023/05/25 09:24:53;;;;;;;8.70;5.20;;;20.20;99.90;;;;;;5071847;28;20430;-57
2023/05/25 09:27:21;;;;;;;11.60;5.80;;;20.20;99.90;;;;;;5070596;28;20425;-58
2023/05/25 09:29:48;;;;;;;6.13;5.00;;;20.00;99.90;;;;;;5071579;28;20438;-58
2023/05/25 09:32:15;;;;;;;11.33;5.70;;;20.10;99.90;;;;;;5071140;28;20438;-59
2023/05/25 09:34:42;;;;;;;5.33;4.50;;;20.30;99.90;;;;;;5071562;28;20437;-58
2023/05/25 09:37:13;;;;;;;5.97;4.70;;;20.80;99.90;;;;;;5071163;28;20825;-58
2023/05/25 09:39:40;;;;;;;6.87;4.10;;;21.70;99.90;;;;;;5071452;28;20448;-57
2023/05/25 09:42:06;;;;;;;8.00;5.20;;;22.00;99.90;;;;;;5070692;28;20565;-58
2023/05/25 09:44:31;;;;;;;7.60;5.57;;;21.70;99.90;;;;;;5070751;28;21223;-58
2023/05/25 09:46:57;;;;;;;9.00;5.43;;;20.90;99.90;;;;;;5071023;28;20186;-59
2023/05/25 09:49:23;;;;;;;8.10;5.80;;;20.40;99.90;;;;;;5070715;28;20190;-58
2023/05/25 09:51:49;;;;;;;12.40;5.73;;;20.50;99.90;;;;;;5070883;28;20264;-57
2023/05/25 09:54:16;;;;;;;9.63;4.70;;;20.30;99.90;;;;;;5071012;28;20241;-59
2023/05/25 09:56:42;;;;;;;6.33;4.67;;;20.70;99.90;;;;;;5069460;28;20505;-57
2023/05/25 09:59:08;;;;;;;8.07;5.30;;;21.10;99.90;;;;;;5069882;28;20454;-58
2023/05/25 10:01:34;;;;;;;7.37;5.00;;;21.30;99.90;;;;;;5068703;28;20476;-58
2023/05/25 10:04:00;;;;;;;8.03;4.63;;;21.20;99.90;;;;;;5070269;28;20179;-59
2023/05/25 10:06:27;;;;;;;9.33;5.80;;;21.10;99.90;;;;;;5070617;28;20434;-58
2023/05/25 10:08:56;;;;;;;7.73;4.60;;;21.20;99.90;;;;;;5070532;28;20452;-58
2023/05/25 10:11:25;;;;;;;7.00;5.87;;;21.10;99.90;;;;;;5070367;28;20446;-57
2023/05/25 10:13:52;;;;;;;8.03;4.70;;;20.70;99.90;;;;;;5068137;28;20456;-58
2023/05/25 10:16:31;;;;;;;8.93;5.30;;;20.70;99.90;;;;;;5070013;28;20911;-57
2023/05/25 10:19:00;;;;;;;7.37;4.40;;;20.90;99.90;;;;;;5070627;28;20454;-57
2023/05/25 10:21:29;;;;;;;8.63;6.17;;;21.20;99.90;;;;;;5066575;28;20967;-58
2023/05/25 10:24:05;;;;;;;8.73;5.30;;;21.40;99.90;;;;;;5067947;28;20807;-58
2023/05/25 10:26:35;;;;;;;8.70;5.07;;;21.40;99.90;;;;;;5063869;28;20484;-57
2023/05/25 10:29:03;;;;;;;7.70;4.50;;;21.30;99.90;;;;;;5065878;28;20548;-58
2023/05/25 10:31:31;;;;;;;8.10;5.33;;;21.20;99.90;;;;;;5062305;28;20453;-58
2023/05/25 10:33:58;;;;;;;8.40;5.10;;;21.20;99.90;;;;;;5065603;28;20458;-57
2023/05/25 10:36:25;;;;;;;8.40;4.93;;;21.10;99.90;;;;;;5069477;28;20449;-58
2023/05/25 10:38:51;;;;;;;8.57;4.63;;;21.20;99.90;;;;;;5069207;28;20966;-56
2023/05/25 10:41:19;;;;;;;11.53;5.70;;;21.60;99.90;;;;;;5066870;28;20470;-60
2023/05/25 10:43:46;;;;;;;7.50;5.00;;;22.00;99.90;;;;;;5069818;28;21111;-58
2023/05/25 10:46:13;;;;;;;7.27;4.80;;;22.30;99.90;;;;;;5066622;28;20831;-59
2023/05/25 10:48:49;;;;;;;6.60;4.90;;;22.30;99.90;;;;;;5072437;28;20445;-58
2023/05/25 10:51:17;;;;;;;7.47;5.23;;;22.00;99.90;;;;;;5067885;28;20450;-58
2023/05/25 10:53:56;;;;;;;5.83;4.70;;;22.00;99.90;;;;;;5065754;28;20451;-59
2023/05/25 10:56:22;;;;;;;5.07;3.90;;;21.90;99.90;;;;;;5065940;28;20458;-57
2023/05/25 10:58:48;;;;;;;7.23;4.80;;;21.50;99.90;;;;;;5067828;28;20539;-57
2023/05/25 11:01:15;;;;;;;7.87;4.30;;;21.30;99.90;;;;;;5068303;28;20231;-58
2023/05/25 11:03:43;;;;;;;8.53;4.70;;;21.20;99.90;;;;;;5069019;28;20430;-58
2023/05/25 11:06:39;;;;;;;6.83;4.90;;;21.30;99.90;;;;;;5084224;28;20437;-58
2023/05/25 11:09:05;;;;;;;8.10;5.57;;;21.30;99.90;;;;;;5089428;28;20457;-59
2023/05/25 11:11:44;;;;;;;5.83;4.67;;;21.20;99.90;;;;;;5089482;28;20470;-59
2023/05/25 11:14:31;;;;;;;6.30;4.53;;;21.30;99.90;;;;;;5089116;28;20444;-57
2023/05/25 11:17:10;;;;;;;7.30;4.40;;;21.10;99.90;;;;;;5075642;28;20554;-57
2023/05/25 11:19:54;;;;;;;9.33;5.23;;;21.00;99.90;;;;;;5068404;28;20967;-57
2023/05/25 11:22:32;;;;;;;7.90;4.63;;;20.90;99.90;;;;;;5066055;28;20569;-59
2023/05/25 11:24:59;;;;;;;5.93;4.00;;;20.90;99.90;;;;;;5069380;28;20467;-58
2023/05/25 11:27:44;;;;;;;8.50;4.77;;;21.10;99.90;;;;;;5064942;28;20446;-59
2023/05/25 11:30:10;;;;;;;5.63;3.90;;;21.00;99.90;;;;;;5069323;28;20438;-57
2023/05/25 11:32:42;;;;;;;7.07;4.20;;;21.10;99.90;;;;;;5063777;28;20456;-57
2023/05/25 11:35:08;;;;;;;5.33;4.10;;;21.40;99.90;;;;;;5065108;28;20448;-58
2023/05/25 11:37:34;;;;;;;6.97;4.13;;;21.50;99.90;;;;;;5069026;28;21174;-58
2023/05/25 11:40:05;;;;;;;7.33;4.20;;;22.00;99.90;;;;;;5067066;28;20502;-57
2023/05/25 11:42:31;;;;;;;7.30;5.13;;;22.20;99.90;;;;;;5069125;28;20970;-57
2023/05/25 11:45:01;;;;;;;9.00;4.30;;;21.90;99.90;;;;;;5069279;28;20488;-58
2023/05/25 11:47:28;;;;;;;5.03;4.60;;;21.50;99.90;;;;;;5066970;28;20457;-59
2023/05/25 11:49:55;;;;;;;8.10;4.83;;;21.60;99.90;;;;;;5065383;28;20446;-59
2023/05/25 11:52:23;;;;;;;4.60;4.20;;;21.60;99.90;;;;;;5066635;28;21007;-59
2023/05/25 11:54:49;;;;;;;7.80;4.43;;;21.90;99.90;;;;;;5064953;28;20454;-58
2023/05/25 11:57:23;;;;;;;8.20;4.67;;;21.80;99.90;;;;;;5064880;28;20480;-58
2023/05/25 11:59:53;;;;;;;6.80;4.50;;;21.50;99.90;;;;;;5066316;28;20863;-58
2023/05/25 12:02:20;;;;;;;9.33;4.20;;;21.60;99.90;;;;;;5068711;28;20465;-59
2023/05/25 12:05:03;;;;;;;6.23;3.90;;;21.80;99.90;;;;;;5066997;28;20539;-58
2023/05/25 12:07:30;;;;;;;5.27;4.13;;;22.00;99.90;;;;;;5067280;28;20448;-58
2023/05/25 12:10:13;;;;;;;7.13;4.40;;;22.10;99.90;;;;;;5067418;28;20535;-57
2023/05/25 12:12:40;;;;;;;4.93;4.10;;;21.90;99.90;;;;;;5068692;28;20441;-58
2023/05/25 12:15:08;;;;;;;6.10;4.03;;;21.90;99.90;;;;;;5068752;28;20904;-57
2023/05/25 12:17:34;;;;;;;4.83;4.40;;;21.90;99.90;;;;;;5072721;28;20442;-57
2023/05/25 12:20:00;;;;;;;9.43;4.13;;;22.00;99.90;;;;;;5067404;28;20442;-58
2023/05/25 12:22:26;;;;;;;5.00;4.13;;;22.00;99.90;;;;;;5067192;28;20476;-56
2023/05/25 12:24:52;;;;;;;7.17;4.40;;;21.80;99.90;;;;;;5065888;28;20216;-58
2023/05/25 12:27:19;;;;;;;8.13;4.43;;;21.80;99.90;;;;;;5068662;28;20468;-57
2023/05/25 12:29:46;;;;;;;7.03;4.30;;;21.90;99.90;;;;;;5067078;28;20534;-57
2023/05/25 12:32:12;;;;;;;5.83;4.30;;;21.70;99.90;;;;;;5061013;28;20450;-58
2023/05/25 12:34:38;;;;;;;6.70;4.03;;;21.40;99.90;;;;;;5075080;28;20854;-57
2023/05/25 12:37:03;;;;;;;5.30;3.73;;;21.40;99.90;;;;;;5064505;28;20219;-57
2023/05/25 12:39:29;;;;;;;7.30;4.60;;;21.50;99.90;;;;;;5068225;28;20257;-57
2023/05/25 12:41:59;;;;;;;6.03;3.67;;;21.60;99.90;;;;;;5068356;28;20274;-58
2023/05/25 12:44:35;;;;;;;7.53;4.03;;;21.70;99.90;;;;;;5068375;28;20257;-57
2023/05/25 12:47:24;;;;;;;5.70;4.47;;;21.90;99.90;;;;;;5068283;28;20797;-57
2023/05/25 12:49:51;;;;;;;5.20;4.37;;;22.40;99.90;;;;;;5068396;28;20413;-57